sensor_id;sensor_type;location;lat;lon;timestamp;temperature;humidity
46732;DHT22;32477;51.474;5.696;2022-12-18T00:01:12;-6.00;99.90
46732;DHT22;32477;51.474;5.696;2022-12-18T00:03:38;-6.00;99.90
46732;DHT22;32477;51.474;5.696;2022-12-18T00:06:04;-6.00;99.90
46732;DHT22;32477;51.474;5.696;2022-12-18T00:08:29;-6.10;99.90
46732;DHT22;32477;51.474;5.696;2022-12-18T00:10:55;-6.10;99.90
46732;DHT22;32477;51.474;5.696;2022-12-18T00:13:28;-6.20;99.90
46732;DHT22;32477;51.474;5.696;2022-12-18T00:15:53;-6.30;99.90
46732;DHT22;32477;51.474;5.696;2022-12-18T00:18:19;-6.30;99.90
46732;DHT22;32477;51.474;5.696;2022-12-18T00:20:45;-6.30;99.90
46732;DHT22;32477;51.474;5.696;2022-12-18T00:23:10;-6.40;99.90
46732;DHT22;32477;51.474;5.696;2022-12-18T00:25:36;-6.40;99.90
46732;DHT22;32477;51.474;5.696;2022-12-18T00:28:03;-6.30;99.90
46732;DHT22;32477;51.474;5.696;2022-12-18T00:30:29;-6.20;99.90
46732;DHT22;32477;51.474;5.696;2022-12-18T00:32:55;-6.30;99.90
46732;DHT22;32477;51.474;5.696;2022-12-18T00:35:21;-6.30;99.90
46732;DHT22;32477;51.474;5.696;2022-12-18T00:37:47;-6.40;99.90
46732;DHT22;32477;51.474;5.696;2022-12-18T00:40:12;-6.30;99.90
46732;DHT22;32477;51.474;5.696;2022-12-18T00:42:38;-6.20;99.90
46732;DHT22;32477;51.474;5.696;2022-12-18T00:45:27;-6.30;99.90
46732;DHT22;32477;51.474;5.696;2022-12-18T00:47:54;-6.30;99.90
46732;DHT22;32477;51.474;5.696;2022-12-18T00:50:20;-6.30;99.90
46732;DHT22;32477;51.474;5.696;2022-12-18T00:52:46;-6.40;99.90
46732;DHT22;32477;51.474;5.696;2022-12-18T00:55:12;-6.40;99.90
46732;DHT22;32477;51.474;5.696;2022-12-18T00:57:38;-6.40;99.90
46732;DHT22;32477;51.474;5.696;2022-12-18T01:00:05;-6.50;99.90
46732;DHT22;32477;51.474;5.696;2022-12-18T01:02:31;-6.50;99.90
46732;DHT22;32477;51.474;5.696;2022-12-18T01:04:57;-6.50;99.90
46732;DHT22;32477;51.474;5.696;2022-12-18T01:07:22;-6.40;99.90
46732;DHT22;32477;51.474;5.696;2022-12-18T01:09:48;-6.40;99.90
46732;DHT22;32477;51.474;5.696;2022-12-18T01:12:13;-6.50;99.90
46732;DHT22;32477;51.474;5.696;2022-12-18T01:14:39;-6.50;99.90
46732;DHT22;32477;51.474;5.696;2022-12-18T01:17:05;-6.50;99.90
46732;DHT22;32477;51.474;5.696;2022-12-18T01:19:30;-6.50;99.90
46732;DHT22;32477;51.474;5.696;2022-12-18T01:21:56;-6.60;99.90
46732;DHT22;32477;51.474;5.696;2022-12-18T01:24:22;-6.70;99.90
46732;DHT22;32477;51.474;5.696;2022-12-18T01:26:47;-6.60;99.90
46732;DHT22;32477;51.474;5.696;2022-12-18T01:29:13;-6.60;99.90
46732;DHT22;32477;51.474;5.696;2022-12-18T01:31:38;-6.60;99.90
46732;DHT22;32477;51.474;5.696;2022-12-18T01:34:04;-6.60;99.90
46732;DHT22;32477;51.474;5.696;2022-12-18T01:36:33;-6.80;99.90
46732;DHT22;32477;51.474;5.696;2022-12-18T01:39:04;-6.80;99.90
46732;DHT22;32477;51.474;5.696;2022-12-18T01:41:33;-6.90;99.90
46732;DHT22;32477;51.474;5.696;2022-12-18T01:44:51;-6.90;99.90
46732;DHT22;32477;51.474;5.696;2022-12-18T01:52:37;-7.10;99.90
46732;DHT22;32477;51.474;5.696;2022-12-18T01:55:05;-7.00;99.90
46732;DHT22;32477;51.474;5.696;2022-12-18T01:57:31;-7.00;99.90
46732;DHT22;32477;51.474;5.696;2022-12-18T02:00:00;-6.90;99.90
46732;DHT22;32477;51.474;5.696;2022-12-18T02:02:28;-6.90;99.90
46732;DHT22;32477;51.474;5.696;2022-12-18T02:04:54;-6.90;99.90
46732;DHT22;32477;51.474;5.696;2022-12-18T02:10:32;-6.90;99.90
46732;DHT22;32477;51.474;5.696;2022-12-18T02:13:27;-6.90;99.90
46732;DHT22;32477;51.474;5.696;2022-12-18T02:18:36;-7.00;99.90
46732;DHT22;32477;51.474;5.696;2022-12-18T02:27:00;-7.20;99.90
46732;DHT22;32477;51.474;5.696;2022-12-18T02:29:37;-7.10;99.90
46732;DHT22;32477;51.474;5.696;2022-12-18T02:32:08;-7.20;99.90
46732;DHT22;32477;51.474;5.696;2022-12-18T02:34:38;-7.20;99.90
46732;DHT22;32477;51.474;5.696;2022-12-18T02:37:07;-7.30;99.90
46732;DHT22;32477;51.474;5.696;2022-12-18T02:39:35;-7.30;99.90
46732;DHT22;32477;51.474;5.696;2022-12-18T02:42:02;-7.40;99.90
46732;DHT22;32477;51.474;5.696;2022-12-18T02:44:34;-7.40;99.90
46732;DHT22;32477;51.474;5.696;2022-12-18T02:47:00;-7.50;99.90
46732;DHT22;32477;51.474;5.696;2022-12-18T02:49:53;-7.50;99.90
46732;DHT22;32477;51.474;5.696;2022-12-18T02:57:40;-7.40;99.90
46732;DHT22;32477;51.474;5.696;2022-12-18T03:00:11;-7.30;99.90
46732;DHT22;32477;51.474;5.696;2022-12-18T03:02:57;-7.30;99.90
46732;DHT22;32477;51.474;5.696;2022-12-18T03:05:37;-7.30;99.90
46732;DHT22;32477;51.474;5.696;2022-12-18T03:08:15;-7.30;99.90
46732;DHT22;32477;51.474;5.696;2022-12-18T03:10:47;-7.30;99.90
46732;DHT22;32477;51.474;5.696;2022-12-18T03:13:27;-7.30;99.90
46732;DHT22;32477;51.474;5.696;2022-12-18T03:15:55;-7.30;99.90
46732;DHT22;32477;51.474;5.696;2022-12-18T03:18:26;-7.30;99.90
46732;DHT22;32477;51.474;5.696;2022-12-18T03:20:58;-7.30;99.90
46732;DHT22;32477;51.474;5.696;2022-12-18T03:23:28;-7.30;99.90
46732;DHT22;32477;51.474;5.696;2022-12-18T03:25:59;-7.10;99.90
46732;DHT22;32477;51.474;5.696;2022-12-18T03:28:28;-6.90;99.90
46732;DHT22;32477;51.474;5.696;2022-12-18T03:30:57;-6.80;99.90
46732;DHT22;32477;51.474;5.696;2022-12-18T03:34:01;-6.80;99.90
46732;DHT22;32477;51.474;5.696;2022-12-18T03:36:19;-6.70;99.90
46732;DHT22;32477;51.474;5.696;2022-12-18T03:38:45;-6.80;99.90
46732;DHT22;32477;51.474;5.696;2022-12-18T03:41:45;-6.80;99.90
46732;DHT22;32477;51.474;5.696;2022-12-18T03:44:16;-6.70;99.90
46732;DHT22;32477;51.474;5.696;2022-12-18T03:49:50;-6.70;99.90
46732;DHT22;32477;51.474;5.696;2022-12-18T03:52:36;-6.80;99.90
46732;DHT22;32477;51.474;5.696;2022-12-18T03:55:05;-6.70;99.90
46732;DHT22;32477;51.474;5.696;2022-12-18T03:57:33;-6.70;99.90
46732;DHT22;32477;51.474;5.696;2022-12-18T04:00:06;-6.70;99.90
46732;DHT22;32477;51.474;5.696;2022-12-18T04:02:33;-6.60;99.90
46732;DHT22;32477;51.474;5.696;2022-12-18T04:05:02;-6.50;99.90
46732;DHT22;32477;51.474;5.696;2022-12-18T04:07:30;-6.50;99.90
46732;DHT22;32477;51.474;5.696;2022-12-18T04:09:58;-6.40;99.90
46732;DHT22;32477;51.474;5.696;2022-12-18T04:12:25;-6.40;99.90
46732;DHT22;32477;51.474;5.696;2022-12-18T04:14:54;-6.40;99.90
46732;DHT22;32477;51.474;5.696;2022-12-18T04:17:20;-6.40;99.90
46732;DHT22;32477;51.474;5.696;2022-12-18T04:19:46;-6.40;99.90
46732;DHT22;32477;51.474;5.696;2022-12-18T04:22:12;-6.40;99.90
46732;DHT22;32477;51.474;5.696;2022-12-18T04:24:38;-6.50;99.90
46732;DHT22;32477;51.474;5.696;2022-12-18T04:27:03;-6.50;99.90
46732;DHT22;32477;51.474;5.696;2022-12-18T04:29:29;-6.40;99.90
46732;DHT22;32477;51.474;5.696;2022-12-18T04:31:55;-6.40;99.90
46732;DHT22;32477;51.474;5.696;2022-12-18T04:34:21;-6.40;99.90
46732;DHT22;32477;51.474;5.696;2022-12-18T04:36:47;-6.40;99.90
46732;DHT22;32477;51.474;5.696;2022-12-18T04:39:13;-6.30;99.90
46732;DHT22;32477;51.474;5.696;2022-12-18T04:41:39;-6.40;99.90
46732;DHT22;32477;51.474;5.696;2022-12-18T04:44:05;-6.40;99.90
46732;DHT22;32477;51.474;5.696;2022-12-18T04:46:31;-6.30;99.90
46732;DHT22;32477;51.474;5.696;2022-12-18T04:48:56;-6.30;99.90
46732;DHT22;32477;51.474;5.696;2022-12-18T04:51:22;-6.40;99.90
46732;DHT22;32477;51.474;5.696;2022-12-18T04:53:47;-6.40;99.90
46732;DHT22;32477;51.474;5.696;2022-12-18T04:56:15;-6.40;99.90
46732;DHT22;32477;51.474;5.696;2022-12-18T04:58:42;-6.40;99.90
46732;DHT22;32477;51.474;5.696;2022-12-18T05:01:08;-6.40;99.90
46732;DHT22;32477;51.474;5.696;2022-12-18T05:03:35;-6.40;99.90
46732;DHT22;32477;51.474;5.696;2022-12-18T05:06:01;-6.40;99.90
46732;DHT22;32477;51.474;5.696;2022-12-18T05:08:26;-6.40;99.90
46732;DHT22;32477;51.474;5.696;2022-12-18T05:13:25;-6.40;99.90
46732;DHT22;32477;51.474;5.696;2022-12-18T05:15:52;-6.50;99.90
46732;DHT22;32477;51.474;5.696;2022-12-18T05:18:18;-6.50;99.90
46732;DHT22;32477;51.474;5.696;2022-12-18T05:20:43;-6.60;99.90
46732;DHT22;32477;51.474;5.696;2022-12-18T05:23:09;-6.60;99.90
46732;DHT22;32477;51.474;5.696;2022-12-18T05:25:35;-6.70;99.90
46732;DHT22;32477;51.474;5.696;2022-12-18T05:28:00;-6.80;99.90
46732;DHT22;32477;51.474;5.696;2022-12-18T05:30:26;-6.90;99.90
46732;DHT22;32477;51.474;5.696;2022-12-18T05:32:53;-6.90;99.90
46732;DHT22;32477;51.474;5.696;2022-12-18T05:35:18;-7.00;99.90
46732;DHT22;32477;51.474;5.696;2022-12-18T05:37:44;-7.00;99.90
46732;DHT22;32477;51.474;5.696;2022-12-18T05:40:11;-7.00;99.90
46732;DHT22;32477;51.474;5.696;2022-12-18T05:42:37;-7.00;99.90
46732;DHT22;32477;51.474;5.696;2022-12-18T05:45:03;-7.00;99.90
46732;DHT22;32477;51.474;5.696;2022-12-18T05:47:29;-7.00;99.90
46732;DHT22;32477;51.474;5.696;2022-12-18T05:49:55;-6.90;99.90
46732;DHT22;32477;51.474;5.696;2022-12-18T05:52:21;-6.80;99.90
46732;DHT22;32477;51.474;5.696;2022-12-18T05:54:47;-6.70;99.90
46732;DHT22;32477;51.474;5.696;2022-12-18T05:57:12;-6.50;99.90
46732;DHT22;32477;51.474;5.696;2022-12-18T05:59:38;-6.40;99.90
46732;DHT22;32477;51.474;5.696;2022-12-18T06:02:04;-6.40;99.90
46732;DHT22;32477;51.474;5.696;2022-12-18T06:04:29;-6.30;99.90
46732;DHT22;32477;51.474;5.696;2022-12-18T06:06:55;-6.20;99.90
46732;DHT22;32477;51.474;5.696;2022-12-18T06:09:21;-6.10;99.90
46732;DHT22;32477;51.474;5.696;2022-12-18T06:11:47;-6.10;99.90
46732;DHT22;32477;51.474;5.696;2022-12-18T06:14:12;-6.10;99.90
46732;DHT22;32477;51.474;5.696;2022-12-18T06:16:38;-6.10;99.90
46732;DHT22;32477;51.474;5.696;2022-12-18T06:19:05;-6.20;99.90
46732;DHT22;32477;51.474;5.696;2022-12-18T06:21:32;-6.20;99.90
46732;DHT22;32477;51.474;5.696;2022-12-18T06:23:58;-6.10;99.90
46732;DHT22;32477;51.474;5.696;2022-12-18T06:26:24;-6.20;99.90
46732;DHT22;32477;51.474;5.696;2022-12-18T06:28:50;-6.10;99.90
46732;DHT22;32477;51.474;5.696;2022-12-18T06:31:15;-6.10;99.90
46732;DHT22;32477;51.474;5.696;2022-12-18T06:33:41;-6.20;99.90
46732;DHT22;32477;51.474;5.696;2022-12-18T06:36:09;-6.20;99.90
46732;DHT22;32477;51.474;5.696;2022-12-18T06:38:37;-6.10;99.90
46732;DHT22;32477;51.474;5.696;2022-12-18T06:41:15;-6.10;99.90
46732;DHT22;32477;51.474;5.696;2022-12-18T06:43:42;-6.10;99.90
46732;DHT22;32477;51.474;5.696;2022-12-18T06:46:08;-6.10;99.90
46732;DHT22;32477;51.474;5.696;2022-12-18T06:48:34;-6.20;99.90
46732;DHT22;32477;51.474;5.696;2022-12-18T06:51:00;-6.20;99.90
46732;DHT22;32477;51.474;5.696;2022-12-18T06:53:25;-6.20;99.90
46732;DHT22;32477;51.474;5.696;2022-12-18T06:55:51;-6.20;99.90
46732;DHT22;32477;51.474;5.696;2022-12-18T06:58:17;-6.20;99.90
46732;DHT22;32477;51.474;5.696;2022-12-18T07:00:43;-6.30;99.90
46732;DHT22;32477;51.474;5.696;2022-12-18T07:03:08;-6.30;99.90
46732;DHT22;32477;51.474;5.696;2022-12-18T07:05:34;-6.30;99.90
46732;DHT22;32477;51.474;5.696;2022-12-18T07:08:04;-6.20;99.90
46732;DHT22;32477;51.474;5.696;2022-12-18T07:10:30;-6.20;99.90
46732;DHT22;32477;51.474;5.696;2022-12-18T07:12:56;-6.30;99.90
46732;DHT22;32477;51.474;5.696;2022-12-18T07:15:21;-6.30;99.90
46732;DHT22;32477;51.474;5.696;2022-12-18T07:17:47;-6.40;99.90
46732;DHT22;32477;51.474;5.696;2022-12-18T07:20:12;-6.40;99.90
46732;DHT22;32477;51.474;5.696;2022-12-18T07:22:38;-6.40;99.90
46732;DHT22;32477;51.474;5.696;2022-12-18T07:25:04;-6.40;99.90
46732;DHT22;32477;51.474;5.696;2022-12-18T07:27:30;-6.50;99.90
46732;DHT22;32477;51.474;5.696;2022-12-18T07:29:56;-6.50;99.90
46732;DHT22;32477;51.474;5.696;2022-12-18T07:32:21;-6.40;99.90
46732;DHT22;32477;51.474;5.696;2022-12-18T07:34:47;-6.40;99.90
46732;DHT22;32477;51.474;5.696;2022-12-18T07:37:12;-6.30;99.90
46732;DHT22;32477;51.474;5.696;2022-12-18T07:39:38;-6.40;99.90
46732;DHT22;32477;51.474;5.696;2022-12-18T07:42:04;-6.40;99.90
46732;DHT22;32477;51.474;5.696;2022-12-18T07:44:48;-6.50;99.90
46732;DHT22;32477;51.474;5.696;2022-12-18T07:47:14;-6.40;99.90
46732;DHT22;32477;51.474;5.696;2022-12-18T07:49:39;-6.40;99.90
46732;DHT22;32477;51.474;5.696;2022-12-18T07:52:05;-6.20;99.90
46732;DHT22;32477;51.474;5.696;2022-12-18T07:54:31;-6.10;99.90
46732;DHT22;32477;51.474;5.696;2022-12-18T07:56:56;-6.00;99.90
46732;DHT22;32477;51.474;5.696;2022-12-18T07:59:22;-5.90;99.90
46732;DHT22;32477;51.474;5.696;2022-12-18T08:01:48;-5.90;99.90
46732;DHT22;32477;51.474;5.696;2022-12-18T08:04:13;-5.80;99.90
46732;DHT22;32477;51.474;5.696;2022-12-18T08:06:39;-5.70;99.90
46732;DHT22;32477;51.474;5.696;2022-12-18T08:09:05;-5.60;99.90
46732;DHT22;32477;51.474;5.696;2022-12-18T08:11:31;-5.50;99.90
46732;DHT22;32477;51.474;5.696;2022-12-18T08:13:57;-5.40;99.90
46732;DHT22;32477;51.474;5.696;2022-12-18T08:16:23;-5.30;99.90
46732;DHT22;32477;51.474;5.696;2022-12-18T08:18:51;-5.20;99.90
46732;DHT22;32477;51.474;5.696;2022-12-18T08:21:23;-5.10;99.90
46732;DHT22;32477;51.474;5.696;2022-12-18T08:23:50;-5.10;99.90
46732;DHT22;32477;51.474;5.696;2022-12-18T08:26:17;-5.00;99.90
46732;DHT22;32477;51.474;5.696;2022-12-18T08:28:43;-4.90;99.90
46732;DHT22;32477;51.474;5.696;2022-12-18T08:31:09;-4.90;99.90
46732;DHT22;32477;51.474;5.696;2022-12-18T08:33:36;-4.80;99.90
46732;DHT22;32477;51.474;5.696;2022-12-18T08:36:03;-4.70;99.90
46732;DHT22;32477;51.474;5.696;2022-12-18T08:38:31;-4.70;99.90
46732;DHT22;32477;51.474;5.696;2022-12-18T08:41:04;-4.60;99.90
46732;DHT22;32477;51.474;5.696;2022-12-18T08:43:30;-4.60;99.90
46732;DHT22;32477;51.474;5.696;2022-12-18T08:46:14;-4.50;99.90
46732;DHT22;32477;51.474;5.696;2022-12-18T08:48:42;-4.50;99.90
46732;DHT22;32477;51.474;5.696;2022-12-18T08:51:07;-4.40;99.90
46732;DHT22;32477;51.474;5.696;2022-12-18T08:53:35;-4.40;99.90
46732;DHT22;32477;51.474;5.696;2022-12-18T08:56:01;-4.30;99.90
46732;DHT22;32477;51.474;5.696;2022-12-18T08:58:27;-4.30;99.90
46732;DHT22;32477;51.474;5.696;2022-12-18T09:00:52;-4.20;99.90
46732;DHT22;32477;51.474;5.696;2022-12-18T09:03:19;-4.10;99.90
46732;DHT22;32477;51.474;5.696;2022-12-18T09:05:48;-4.00;99.90
46732;DHT22;32477;51.474;5.696;2022-12-18T09:08:14;-3.90;99.90
46732;DHT22;32477;51.474;5.696;2022-12-18T09:10:47;-3.80;99.90
46732;DHT22;32477;51.474;5.696;2022-12-18T09:13:14;-3.70;99.90
46732;DHT22;32477;51.474;5.696;2022-12-18T09:15:49;-3.60;99.90
46732;DHT22;32477;51.474;5.696;2022-12-18T09:18:16;-3.60;99.90
46732;DHT22;32477;51.474;5.696;2022-12-18T09:20:43;-3.50;99.90
46732;DHT22;32477;51.474;5.696;2022-12-18T09:23:10;-3.40;99.90
46732;DHT22;32477;51.474;5.696;2022-12-18T09:25:36;-3.40;99.90
46732;DHT22;32477;51.474;5.696;2022-12-18T09:28:04;-3.40;99.90
46732;DHT22;32477;51.474;5.696;2022-12-18T09:30:30;-3.30;99.90
46732;DHT22;32477;51.474;5.696;2022-12-18T09:32:58;-3.20;99.90
46732;DHT22;32477;51.474;5.696;2022-12-18T09:35:24;-3.20;99.90
46732;DHT22;32477;51.474;5.696;2022-12-18T09:37:50;-3.20;99.90
46732;DHT22;32477;51.474;5.696;2022-12-18T09:40:18;-3.10;99.90
46732;DHT22;32477;51.474;5.696;2022-12-18T09:43:00;-3.10;99.90
46732;DHT22;32477;51.474;5.696;2022-12-18T09:45:26;-3.00;99.90
46732;DHT22;32477;51.474;5.696;2022-12-18T09:47:54;-3.00;99.90
46732;DHT22;32477;51.474;5.696;2022-12-18T09:50:28;-2.90;99.90
46732;DHT22;32477;51.474;5.696;2022-12-18T09:52:57;-2.80;99.90
46732;DHT22;32477;51.474;5.696;2022-12-18T09:55:45;-2.80;99.90
46732;DHT22;32477;51.474;5.696;2022-12-18T10:00:55;-2.70;99.90
46732;DHT22;32477;51.474;5.696;2022-12-18T10:03:21;-2.60;99.90
46732;DHT22;32477;51.474;5.696;2022-12-18T10:14:09;-2.20;99.90
46732;DHT22;32477;51.474;5.696;2022-12-18T10:19:52;-2.00;99.90
46732;DHT22;32477;51.474;5.696;2022-12-18T10:27:56;-1.80;99.90
46732;DHT22;32477;51.474;5.696;2022-12-18T10:30:24;-1.70;99.90
46732;DHT22;32477;51.474;5.696;2022-12-18T10:32:50;-1.70;99.90
46732;DHT22;32477;51.474;5.696;2022-12-18T10:35:24;-1.70;99.90
46732;DHT22;32477;51.474;5.696;2022-12-18T10:38:02;-1.70;99.90
46732;DHT22;32477;51.474;5.696;2022-12-18T10:40:27;-1.60;99.90
46732;DHT22;32477;51.474;5.696;2022-12-18T10:43:11;-1.50;99.90
46732;DHT22;32477;51.474;5.696;2022-12-18T10:45:38;-1.50;99.90
46732;DHT22;32477;51.474;5.696;2022-12-18T10:48:04;-1.40;99.90
46732;DHT22;32477;51.474;5.696;2022-12-18T10:50:35;-1.30;99.90
46732;DHT22;32477;51.474;5.696;2022-12-18T10:53:04;-1.20;99.90
46732;DHT22;32477;51.474;5.696;2022-12-18T10:55:37;-1.20;99.90
46732;DHT22;32477;51.474;5.696;2022-12-18T10:58:24;-1.20;99.90
46732;DHT22;32477;51.474;5.696;2022-12-18T11:06:10;-1.10;99.90
46732;DHT22;32477;51.474;5.696;2022-12-18T11:08:36;-1.00;99.90
46732;DHT22;32477;51.474;5.696;2022-12-18T11:11:04;-1.10;99.90
46732;DHT22;32477;51.474;5.696;2022-12-18T11:13:32;-1.00;99.90
46732;DHT22;32477;51.474;5.696;2022-12-18T11:15:58;-1.10;99.90
46732;DHT22;32477;51.474;5.696;2022-12-18T11:18:30;-1.10;99.90
46732;DHT22;32477;51.474;5.696;2022-12-18T11:21:10;-1.00;99.90
46732;DHT22;32477;51.474;5.696;2022-12-18T11:23:47;-1.00;99.90
46732;DHT22;32477;51.474;5.696;2022-12-18T11:26:13;-1.00;99.90
46732;DHT22;32477;51.474;5.696;2022-12-18T11:28:47;-1.00;99.90
46732;DHT22;32477;51.474;5.696;2022-12-18T11:31:28;-0.90;99.90
46732;DHT22;32477;51.474;5.696;2022-12-18T11:34:15;-0.90;99.90
46732;DHT22;32477;51.474;5.696;2022-12-18T11:36:45;-0.80;99.90
46732;DHT22;32477;51.474;5.696;2022-12-18T11:39:18;-0.80;99.90
46732;DHT22;32477;51.474;5.696;2022-12-18T11:42:03;-0.80;99.90
46732;DHT22;32477;51.474;5.696;2022-12-18T11:44:47;-0.70;99.90
46732;DHT22;32477;51.474;5.696;2022-12-18T11:50:20;-0.60;99.90
46732;DHT22;32477;51.474;5.696;2022-12-18T11:52:47;-0.60;99.90
46732;DHT22;32477;51.474;5.696;2022-12-18T11:55:37;-0.60;99.90
46732;DHT22;32477;51.474;5.696;2022-12-18T11:58:11;-0.60;99.90
46732;DHT22;32477;51.474;5.696;2022-12-18T12:00:50;-0.60;99.90
46732;DHT22;32477;51.474;5.696;2022-12-18T12:06:29;-0.50;99.90
46732;DHT22;32477;51.474;5.696;2022-12-18T12:09:11;-0.50;99.90
46732;DHT22;32477;51.474;5.696;2022-12-18T12:14:32;-0.50;99.90
46732;DHT22;32477;51.474;5.696;2022-12-18T12:17:38;-0.40;99.90
46732;DHT22;32477;51.474;5.696;2022-12-18T12:20:16;-0.30;99.90
46732;DHT22;32477;51.474;5.696;2022-12-18T12:23:11;-0.30;99.90
46732;DHT22;32477;51.474;5.696;2022-12-18T12:25:54;-0.30;99.90
46732;DHT22;32477;51.474;5.696;2022-12-18T12:34:07;-0.30;99.90
46732;DHT22;32477;51.474;5.696;2022-12-18T12:36:54;-0.30;99.90
46732;DHT22;32477;51.474;5.696;2022-12-18T12:39:26;-0.20;99.90
46732;DHT22;32477;51.474;5.696;2022-12-18T12:41:53;-0.20;99.90
46732;DHT22;32477;51.474;5.696;2022-12-18T12:44:47;-0.20;99.90
46732;DHT22;32477;51.474;5.696;2022-12-18T12:47:20;-0.10;99.90
46732;DHT22;32477;51.474;5.696;2022-12-18T12:49:49;-0.10;99.90
46732;DHT22;32477;51.474;5.696;2022-12-18T12:52:31;-0.10;99.90
46732;DHT22;32477;51.474;5.696;2022-12-18T12:54:58;-0.10;99.90
46732;DHT22;32477;51.474;5.696;2022-12-18T12:57:34;-0.10;99.90
46732;DHT22;32477;51.474;5.696;2022-12-18T13:00:12;-0.10;99.90
46732;DHT22;32477;51.474;5.696;2022-12-18T13:05:34;0.00;99.90
46732;DHT22;32477;51.474;5.696;2022-12-18T13:08:06;0.00;99.90
46732;DHT22;32477;51.474;5.696;2022-12-18T13:13:09;0.00;99.90
46732;DHT22;32477;51.474;5.696;2022-12-18T13:15:45;0.10;99.90
46732;DHT22;32477;51.474;5.696;2022-12-18T13:18:23;0.00;99.90
46732;DHT22;32477;51.474;5.696;2022-12-18T13:21:01;0.10;99.90
46732;DHT22;32477;51.474;5.696;2022-12-18T13:23:36;0.00;99.90
46732;DHT22;32477;51.474;5.696;2022-12-18T13:34:20;0.00;99.90
46732;DHT22;32477;51.474;5.696;2022-12-18T13:36:53;0.00;99.90
46732;DHT22;32477;51.474;5.696;2022-12-18T13:41:46;0.00;99.90
46732;DHT22;32477;51.474;5.696;2022-12-18T13:44:32;0.10;99.90
46732;DHT22;32477;51.474;5.696;2022-12-18T13:47:02;0.00;99.90
46732;DHT22;32477;51.474;5.696;2022-12-18T13:52:03;0.00;99.90
46732;DHT22;32477;51.474;5.696;2022-12-18T13:54:40;0.00;99.90
46732;DHT22;32477;51.474;5.696;2022-12-18T13:59:51;0.10;99.90
46732;DHT22;32477;51.474;5.696;2022-12-18T14:02:21;0.10;99.90
46732;DHT22;32477;51.474;5.696;2022-12-18T14:04:48;0.10;99.90
46732;DHT22;32477;51.474;5.696;2022-12-18T14:07:20;0.10;99.90
46732;DHT22;32477;51.474;5.696;2022-12-18T14:10:21;0.20;99.90
46732;DHT22;32477;51.474;5.696;2022-12-18T14:12:39;0.20;99.90
46732;DHT22;32477;51.474;5.696;2022-12-18T14:18:31;0.20;99.90
46732;DHT22;32477;51.474;5.696;2022-12-18T14:21:00;0.20;99.90
46732;DHT22;32477;51.474;5.696;2022-12-18T14:23:40;0.20;99.90
46732;DHT22;32477;51.474;5.696;2022-12-18T14:26:26;0.20;99.90
46732;DHT22;32477;51.474;5.696;2022-12-18T14:29:01;0.20;99.90
46732;DHT22;32477;51.474;5.696;2022-12-18T14:31:31;0.20;99.90
46732;DHT22;32477;51.474;5.696;2022-12-18T14:33:57;0.20;99.90
46732;DHT22;32477;51.474;5.696;2022-12-18T14:36:29;0.20;99.90
46732;DHT22;32477;51.474;5.696;2022-12-18T14:38:58;0.20;99.90
46732;DHT22;32477;51.474;5.696;2022-12-18T14:41:25;0.20;99.90
46732;DHT22;32477;51.474;5.696;2022-12-18T14:43:53;0.10;99.90
46732;DHT22;32477;51.474;5.696;2022-12-18T14:49:02;0.20;99.90
46732;DHT22;32477;51.474;5.696;2022-12-18T14:51:33;0.20;99.90
46732;DHT22;32477;51.474;5.696;2022-12-18T14:54:05;0.20;99.90
46732;DHT22;32477;51.474;5.696;2022-12-18T14:56:37;0.20;99.90
46732;DHT22;32477;51.474;5.696;2022-12-18T14:59:15;0.20;99.90
46732;DHT22;32477;51.474;5.696;2022-12-18T15:02:18;0.20;99.90
46732;DHT22;32477;51.474;5.696;2022-12-18T15:04:45;0.20;99.90
46732;DHT22;32477;51.474;5.696;2022-12-18T15:07:22;0.20;99.90
46732;DHT22;32477;51.474;5.696;2022-12-18T15:10:14;0.20;99.90
46732;DHT22;32477;51.474;5.696;2022-12-18T15:15:49;0.20;99.90
46732;DHT22;32477;51.474;5.696;2022-12-18T15:18:17;0.20;99.90
46732;DHT22;32477;51.474;5.696;2022-12-18T15:26:10;0.10;99.90
46732;DHT22;32477;51.474;5.696;2022-12-18T15:28:47;0.20;99.90
46732;DHT22;32477;51.474;5.696;2022-12-18T15:33:41;0.10;99.90
46732;DHT22;32477;51.474;5.696;2022-12-18T15:36:13;0.20;99.90
46732;DHT22;32477;51.474;5.696;2022-12-18T15:38:39;0.20;99.90
46732;DHT22;32477;51.474;5.696;2022-12-18T15:41:11;0.30;99.90
46732;DHT22;32477;51.474;5.696;2022-12-18T15:43:37;0.20;99.90
46732;DHT22;32477;51.474;5.696;2022-12-18T15:46:09;0.10;99.90
46732;DHT22;32477;51.474;5.696;2022-12-18T15:48:46;0.10;99.90
46732;DHT22;32477;51.474;5.696;2022-12-18T15:53:51;0.10;99.90
46732;DHT22;32477;51.474;5.696;2022-12-18T15:56:18;0.10;99.90
46732;DHT22;32477;51.474;5.696;2022-12-18T15:59:08;0.10;99.90
46732;DHT22;32477;51.474;5.696;2022-12-18T16:01:35;0.20;99.90
46732;DHT22;32477;51.474;5.696;2022-12-18T16:04:00;0.10;99.90
46732;DHT22;32477;51.474;5.696;2022-12-18T16:06:26;0.20;99.90
46732;DHT22;32477;51.474;5.696;2022-12-18T16:08:52;0.10;99.90
46732;DHT22;32477;51.474;5.696;2022-12-18T16:11:22;0.20;99.90
46732;DHT22;32477;51.474;5.696;2022-12-18T16:16:40;0.20;99.90
46732;DHT22;32477;51.474;5.696;2022-12-18T16:19:05;0.20;99.90
46732;DHT22;32477;51.474;5.696;2022-12-18T16:21:31;0.20;99.90
46732;DHT22;32477;51.474;5.696;2022-12-18T16:23:57;0.10;99.90
46732;DHT22;32477;51.474;5.696;2022-12-18T16:26:22;0.10;99.90
46732;DHT22;32477;51.474;5.696;2022-12-18T16:28:48;0.10;99.90
46732;DHT22;32477;51.474;5.696;2022-12-18T16:31:14;0.20;99.90
46732;DHT22;32477;51.474;5.696;2022-12-18T16:33:40;0.20;99.90
46732;DHT22;32477;51.474;5.696;2022-12-18T16:36:06;0.20;99.90
46732;DHT22;32477;51.474;5.696;2022-12-18T16:38:31;0.20;99.90
46732;DHT22;32477;51.474;5.696;2022-12-18T16:40:57;0.10;99.90
46732;DHT22;32477;51.474;5.696;2022-12-18T16:43:41;0.20;99.90
46732;DHT22;32477;51.474;5.696;2022-12-18T16:46:07;0.20;99.90
46732;DHT22;32477;51.474;5.696;2022-12-18T16:48:33;0.10;99.90
46732;DHT22;32477;51.474;5.696;2022-12-18T16:51:01;0.10;99.90
46732;DHT22;32477;51.474;5.696;2022-12-18T16:53:27;0.10;99.90
46732;DHT22;32477;51.474;5.696;2022-12-18T16:55:55;0.10;99.90
46732;DHT22;32477;51.474;5.696;2022-12-18T16:58:21;0.10;99.90
46732;DHT22;32477;51.474;5.696;2022-12-18T17:00:47;0.10;99.90
46732;DHT22;32477;51.474;5.696;2022-12-18T17:03:12;0.10;99.90
46732;DHT22;32477;51.474;5.696;2022-12-18T17:05:38;0.10;99.90
46732;DHT22;32477;51.474;5.696;2022-12-18T17:08:04;0.10;99.90
46732;DHT22;32477;51.474;5.696;2022-12-18T17:10:30;0.10;99.90
46732;DHT22;32477;51.474;5.696;2022-12-18T17:12:56;0.10;99.90
46732;DHT22;32477;51.474;5.696;2022-12-18T17:15:21;0.20;99.90
46732;DHT22;32477;51.474;5.696;2022-12-18T17:17:47;0.20;99.90
46732;DHT22;32477;51.474;5.696;2022-12-18T17:20:13;0.10;99.90
46732;DHT22;32477;51.474;5.696;2022-12-18T17:22:39;0.10;99.90
46732;DHT22;32477;51.474;5.696;2022-12-18T17:25:05;0.20;99.90
46732;DHT22;32477;51.474;5.696;2022-12-18T17:27:31;0.10;99.90
46732;DHT22;32477;51.474;5.696;2022-12-18T17:29:56;0.20;99.90
46732;DHT22;32477;51.474;5.696;2022-12-18T17:32:22;0.20;99.90
46732;DHT22;32477;51.474;5.696;2022-12-18T17:34:48;0.10;99.90
46732;DHT22;32477;51.474;5.696;2022-12-18T17:37:14;0.10;99.90
46732;DHT22;32477;51.474;5.696;2022-12-18T17:39:40;0.10;99.90
46732;DHT22;32477;51.474;5.696;2022-12-18T17:42:06;0.20;99.90